Terminal Aerodrome Forecast
Issued by NWS

Home | Current Version | Previous Version | Graphics & Text | Print | Product List | Glossary On
Versions: 1 2 3 4 5 6 7 8 9 10 11 12 13 14 15 16 17 18
000
FTUS43 KMPX 171000 AAB
TAFRWF
TAF AMD
KRWF 171005Z 1710/1806 33012KT P6SM SKC
     FM171200 34011KT P6SM SCT035
     FM171500 34008KT P6SM BKN030
      TEMPO 1715/1718 SCT030
     FM171800 36009KT P6SM SCT030
     FM180200 VRB03KT P6SM BKN100=

USA.gov is the U.S. government's official web portal to all federal, state and local government web resources and services.